Time;durP1;ratioP1;P1;durP2;ratioP2;P2;SDS_P1;SDS_P2;PMS_P1;PMS_P2;Temp;Humidity;BMP_temperature;BMP_pressure;BME280_temperature;BME280_humidity;BME280_pressure;Samples;Min_cycle;Max_cycle;Signal;HPM_P1;HPM_P2
2021/07/02 00:00:32;;;;;;;5.85;3.40;;;;;;;13.32;99.09;99126.97;5041582;28;20527;-79
2021/07/02 00:03:02;;;;;;;7.95;4.18;;;;;;;13.25;97.70;99112.50;5052388;28;20053;-79
2021/07/02 00:05:29;;;;;;;7.93;4.03;;;;;;;13.11;98.94;99111.56;5043230;28;20060;-79
2021/07/02 00:07:56;;;;;;;6.22;3.17;;;;;;;13.08;99.80;99118.28;5052164;28;20065;-79
2021/07/02 00:10:29;;;;;;;8.55;3.95;;;;;;;13.03;99.92;99111.75;5048771;28;20048;-79
2021/07/02 00:13:14;;;;;;;10.32;3.90;;;;;;;12.98;99.87;99104.16;5050919;28;20148;-79
2021/07/02 00:15:41;;;;;;;6.00;3.25;;;;;;;13.16;99.48;99114.53;5047284;28;20128;-79
2021/07/02 00:18:09;;;;;;;7.03;4.07;;;;;;;13.15;98.65;99112.03;5035494;28;20053;-79
2021/07/02 00:20:37;;;;;;;4.47;3.22;;;;;;;13.11;98.58;99103.38;5042784;28;20037;-79
2021/07/02 00:23:04;;;;;;;6.18;3.83;;;;;;;13.27;98.41;99119.41;5050153;28;20048;-79
2021/07/02 00:25:32;;;;;;;6.10;4.00;;;;;;;13.23;98.22;99117.28;5050077;28;20045;-79
2021/07/02 00:27:59;;;;;;;6.82;3.53;;;;;;;13.06;98.64;99109.44;5049787;28;20048;-79
2021/07/02 00:30:26;;;;;;;9.40;3.85;;;;;;;13.07;98.52;99099.38;5051643;28;20346;-79
2021/07/02 00:32:52;;;;;;;6.90;3.80;;;;;;;13.19;98.17;99102.38;5044082;28;20049;-79
2021/07/02 00:35:19;;;;;;;11.35;4.00;;;;;;;13.13;98.25;99104.03;5042126;28;20450;-79
2021/07/02 00:37:46;;;;;;;15.50;3.80;;;;;;;13.23;98.04;99114.56;5056941;28;20045;-79
2021/07/02 00:40:14;;;;;;;4.55;3.15;;;;;;;13.17;98.20;99109.91;5032475;28;20053;-79
2021/07/02 00:42:42;;;;;;;8.02;3.85;;;;;;;13.09;98.16;99086.38;5032986;28;20052;-79
2021/07/02 00:45:10;;;;;;;9.43;3.90;;;;;;;13.03;98.70;99093.47;5031961;28;20045;-79
2021/07/02 00:47:36;;;;;;;8.23;4.00;;;;;;;13.17;98.82;99096.25;5048979;28;20053;-80
2021/07/02 00:50:04;;;;;;;7.15;4.15;;;;;;;13.23;98.10;99109.09;5049988;28;20096;-80
2021/07/02 00:52:31;;;;;;;6.40;3.85;;;;;;;13.13;98.29;99104.03;5036092;28;20061;-79
2021/07/02 00:54:58;;;;;;;5.35;3.50;;;;;;;13.07;98.12;99086.56;5038969;28;20045;-80
2021/07/02 00:57:26;;;;;;;5.65;3.50;;;;;;;13.13;98.19;99103.16;5044438;28;20045;-79
2021/07/02 00:59:54;;;;;;;5.72;3.85;;;;;;;13.13;98.34;99109.50;5051257;28;20045;-79
2021/07/02 01:02:21;;;;;;;5.32;3.28;;;;;;;13.04;97.92;99095.16;5037167;28;20063;-79
2021/07/02 01:04:47;;;;;;;10.95;3.65;;;;;;;13.01;98.04;99095.56;5050938;28;20052;-79
2021/07/02 01:07:15;;;;;;;8.00;3.30;;;;;;;13.10;98.20;99108.00;5042467;28;20052;-79
2021/07/02 01:09:43;;;;;;;4.70;3.60;;;;;;;13.07;98.52;99104.84;5032528;28;20084;-79
2021/07/02 01:12:11;;;;;;;9.55;3.38;;;;;;;13.01;98.26;99092.84;5038258;28;20564;-79
2021/07/02 01:14:39;;;;;;;7.38;3.55;;;;;;;13.04;98.40;99100.63;5038612;28;20490;-79
2021/07/02 01:17:07;;;;;;;8.35;3.97;;;;;;;12.98;98.68;99084.25;5038392;28;20053;-79
2021/07/02 01:19:34;;;;;;;6.93;3.65;;;;;;;13.06;99.11;99112.16;5046676;28;20060;-79
2021/07/02 01:22:03;;;;;;;8.18;3.83;;;;;;;13.10;99.23;99104.44;5048332;28;20072;-79
2021/07/02 01:24:29;;;;;;;6.80;3.60;;;;;;;13.01;99.37;99095.56;5043577;28;20053;-79
2021/07/02 01:26:58;;;;;;;10.25;3.70;;;;;;;13.00;99.16;99080.25;5031749;28;20401;-79
2021/07/02 01:29:25;;;;;;;13.70;4.93;;;;;;;13.07;98.61;99077.56;5043367;28;20052;-79
2021/07/02 01:31:51;;;;;;;8.25;3.80;;;;;;;13.17;98.93;99099.84;5047284;28;20056;-79
2021/07/02 01:34:18;;;;;;;7.82;3.97;;;;;;;13.19;99.08;99097.75;5050513;28;20505;-79
2021/07/02 01:36:45;;;;;;;10.93;3.97;;;;;;;13.22;98.42;99093.78;5045755;28;20091;-79
2021/07/02 01:39:13;;;;;;;6.25;3.78;;;;;;;13.18;98.77;99100.69;5054794;28;20420;-79
2021/07/02 01:41:40;;;;;;;14.80;5.13;;;;;;;12.97;99.55;99083.38;5045144;28;20046;-79
2021/07/02 01:44:07;;;;;;;12.45;4.50;;;;;;;13.13;99.28;99101.31;5043836;28;20105;-79
2021/07/02 01:46:34;;;;;;;13.30;4.25;;;;;;;12.95;99.55;99084.63;5038994;28;20056;-79
2021/07/02 01:49:00;;;;;;;8.80;4.47;;;;;;;13.05;99.97;99110.50;5054861;28;20056;-79
2021/07/02 01:51:27;;;;;;;9.82;4.03;;;;;;;12.99;100.00;99080.44;5054071;28;20087;-79
2021/07/02 01:53:54;;;;;;;7.20;3.60;;;;;;;13.17;100.00;99099.00;5047885;28;20550;-79
2021/07/02 01:56:22;;;;;;;6.75;3.50;;;;;;;13.05;100.00;99087.81;5053926;28;20049;-79
2021/07/02 01:58:49;;;;;;;13.23;6.63;;;;;;;13.03;100.00;99093.47;5047788;28;20440;-80
2021/07/02 02:01:16;;;;;;;10.38;3.72;;;;;;;13.02;100.00;99086.34;5051135;28;20056;-79
2021/07/02 02:03:43;;;;;;;6.28;4.38;;;;;;;13.00;99.63;99088.41;5054003;28;20111;-80
2021/07/02 02:06:10;;;;;;;10.40;3.78;;;;;;;13.05;99.25;99091.41;5039787;28;20053;-79
2021/07/02 02:08:37;;;;;;;4.93;3.40;;;;;;;13.07;98.98;99093.94;5034619;28;20041;-79
2021/07/02 02:11:03;;;;;;;20.58;5.97;;;;;;;12.92;99.17;99104.97;5035667;28;20452;-79
2021/07/02 02:13:32;;;;;;;9.60;3.65;;;;;;;12.91;99.51;99103.28;5037409;28;20126;-79
2021/07/02 02:15:58;;;;;;;7.45;3.88;;;;;;;12.82;99.51;99088.97;5035608;28;20041;-79
2021/07/02 02:18:25;;;;;;;6.53;3.78;;;;;;;12.79;99.25;99100.28;5054163;28;20107;-79
2021/07/02 02:20:52;;;;;;;8.23;4.40;;;;;;;12.72;99.26;99091.19;5053908;28;20049;-79
2021/07/02 02:23:19;;;;;;;8.50;4.15;;;;;;;12.76;99.33;99111.59;5052707;28;20462;-79
2021/07/02 02:25:45;;;;;;;8.73;3.58;;;;;;;12.58;99.45;99093.00;5053987;28;20056;-80
2021/07/02 02:28:12;;;;;;;14.18;4.00;;;;;;;12.57;99.22;99096.81;5052271;28;20068;-79
2021/07/02 02:30:40;;;;;;;7.25;3.72;;;;;;;12.59;98.77;99077.50;5034870;28;20443;-79
2021/07/02 02:33:08;;;;;;;8.13;3.40;;;;;;;12.66;97.97;99101.06;5041837;28;20491;-79
2021/07/02 02:35:35;;;;;;;6.55;4.25;;;;;;;12.52;98.30;99097.38;5051756;28;20051;-79
2021/07/02 02:38:02;;;;;;;8.82;3.92;;;;;;;12.52;98.44;99091.09;5044784;28;20489;-79
2021/07/02 02:40:29;;;;;;;5.53;3.13;;;;;;;12.45;97.97;99109.28;5041422;28;20049;-79
2021/07/02 02:42:55;;;;;;;8.75;3.15;;;;;;;12.38;98.26;99111.97;5034214;28;20053;-79
2021/07/02 02:45:22;;;;;;;8.90;3.70;;;;;;;12.29;98.30;99105.81;5047493;28;20563;-79
2021/07/02 02:47:51;;;;;;;6.93;3.58;;;;;;;12.42;97.67;99109.66;5053133;28;20126;-79
2021/07/02 02:50:18;;;;;;;8.07;3.72;;;;;;;12.22;97.76;99099.47;5053424;28;20538;-79
2021/07/02 02:52:45;;;;;;;9.88;4.10;;;;;;;12.28;97.83;99115.03;5044390;28;20049;-79
2021/07/02 02:55:12;;;;;;;7.00;4.20;;;;;;;12.14;97.95;99097.72;5053269;28;20459;-79
2021/07/02 02:57:39;;;;;;;13.55;3.83;;;;;;;12.11;97.90;99081.75;5046978;28;20041;-79
2021/07/02 03:00:08;;;;;;;7.25;3.83;;;;;;;12.09;98.16;99089.31;5040218;28;20056;-79
2021/07/02 03:02:35;;;;;;;7.30;4.22;;;;;;;12.14;98.54;99095.00;5048376;28;20438;-79
2021/07/02 03:05:04;;;;;;;7.40;4.55;;;;;;;12.17;99.35;99101.94;5046419;28;20512;-79
2021/07/02 03:07:31;;;;;;;9.25;3.90;;;;;;;12.21;99.26;99108.69;5043781;28;20052;-79
2021/07/02 03:09:58;;;;;;;8.82;4.22;;;;;;;12.18;99.48;99101.75;5045642;28;20557;-79
2021/07/02 03:12:24;;;;;;;7.43;4.72;;;;;;;12.05;99.63;99090.72;5072553;28;20051;-79
2021/07/02 03:14:53;;;;;;;8.90;3.88;;;;;;;12.07;99.80;99088.63;5040065;28;20156;-79
2021/07/02 03:17:20;;;;;;;8.02;4.13;;;;;;;12.24;99.70;99105.56;5049513;28;20080;-79
2021/07/02 03:19:47;;;;;;;10.15;4.03;;;;;;;12.17;99.89;99101.94;5040923;28;20059;-79
2021/07/02 03:22:15;;;;;;;8.02;4.22;;;;;;;12.17;99.88;99107.41;5050796;28;20045;-79
2021/07/02 03:24:42;;;;;;;8.75;3.63;;;;;;;12.10;100.00;99090.13;5050295;28;20052;-79
2021/07/02 03:27:09;;;;;;;8.63;3.83;;;;;;;12.16;100.00;99102.97;5037971;28;20099;-79
2021/07/02 03:29:36;;;;;;;7.30;4.57;;;;;;;12.27;100.00;99115.22;5033283;28;20111;-79
2021/07/02 03:32:04;;;;;;;8.73;4.20;;;;;;;12.31;100.00;99116.50;5038304;28;20491;-79
2021/07/02 03:34:30;;;;;;;9.77;4.32;;;;;;;12.24;100.00;99112.88;5032983;28;20088;-79
2021/07/02 03:36:57;;;;;;;10.93;4.63;;;;;;;12.22;100.00;99115.81;5036386;28;20048;-79
2021/07/02 03:39:25;;;;;;;6.82;4.47;;;;;;;12.23;100.00;99103.03;5033359;28;20095;-79
2021/07/02 03:41:52;;;;;;;10.10;4.22;;;;;;;12.30;100.00;99112.09;5035383;28;20501;-79
2021/07/02 03:44:19;;;;;;;7.55;4.20;;;;;;;12.36;100.00;99116.75;5049582;28;20390;-79
2021/07/02 03:46:46;;;;;;;9.75;4.57;;;;;;;12.31;99.86;99111.06;5050548;28;20091;-80
2021/07/02 03:49:12;;;;;;;9.52;4.10;;;;;;;12.34;100.00;99103.31;5045339;28;20060;-80
2021/07/02 03:51:39;;;;;;;6.75;4.22;;;;;;;12.31;100.00;99106.44;5032741;28;20045;-80
2021/07/02 03:54:06;;;;;;;9.23;5.00;;;;;;;12.50;99.45;99132.19;5039265;28;20056;-79
2021/07/02 03:56:34;;;;;;;7.47;4.47;;;;;;;12.43;99.08;99114.94;5036216;28;20046;-79
2021/07/02 03:59:01;;;;;;;7.65;4.68;;;;;;;12.45;99.06;99128.38;5043132;28;20052;-79
2021/07/02 04:01:27;;;;;;;9.52;4.50;;;;;;;12.49;99.88;99116.84;5050645;28;20102;-79
2021/07/02 04:03:54;;;;;;;7.25;4.28;;;;;;;12.50;100.00;99129.47;5033119;28;20057;-79
2021/07/02 04:06:21;;;;;;;7.50;4.03;;;;;;;12.54;100.00;99119.84;5044055;28;20048;-79
2021/07/02 04:08:48;;;;;;;8.25;4.65;;;;;;;12.48;100.00;99125.25;5041773;28;20079;-79
2021/07/02 04:11:14;;;;;;;12.10;5.15;;;;;;;12.51;100.00;99133.88;5033564;28;20049;-79
2021/07/02 04:13:42;;;;;;;8.45;4.28;;;;;;;12.44;100.00;99111.16;5044124;28;20099;-79
2021/07/02 04:16:09;;;;;;;10.55;4.68;;;;;;;12.50;100.00;99124.00;5031874;28;20049;-79
2021/07/02 04:18:36;;;;;;;11.50;4.72;;;;;;;12.49;100.00;99126.94;5035785;28;20044;-79
2021/07/02 04:21:03;;;;;;;7.75;4.78;;;;;;;12.50;100.00;99115.00;5032024;28;20056;-77
2021/07/02 04:23:29;;;;;;;13.07;4.78;;;;;;;12.56;100.00;99123.22;5033553;28;20053;-79
2021/07/02 04:25:56;;;;;;;8.02;4.85;;;;;;;12.75;100.00;99137.16;5032276;28;20041;-79
2021/07/02 04:28:23;;;;;;;10.40;4.72;;;;;;;12.86;99.80;99136.63;5034650;28;20103;-79
2021/07/02 04:30:51;;;;;;;8.95;4.28;;;;;;;12.84;98.69;99113.31;5050570;28;20041;-80
2021/07/02 04:33:18;;;;;;;8.52;4.85;;;;;;;13.01;99.01;99136.50;5053895;28;20052;-80
2021/07/02 04:35:45;;;;;;;7.28;4.65;;;;;;;13.08;99.13;99122.88;5051975;28;20053;-81
2021/07/02 04:38:15;;;;;;;9.57;4.85;;;;;;;13.27;98.46;99124.88;5035492;28;20050;-81
2021/07/02 04:40:44;;;;;;;10.75;5.30;;;;;;;13.33;97.25;99125.94;5033174;28;20041;-81
2021/07/02 04:43:11;;;;;;;11.32;5.20;;;;;;;13.45;97.04;99129.81;5031816;28;20057;-81
2021/07/02 04:45:38;;;;;;;10.20;4.93;;;;;;;13.59;96.58;99132.56;5050982;28;20041;-81
2021/07/02 04:48:06;;;;;;;10.93;5.40;;;;;;;13.59;95.91;99127.13;5045072;28;20504;-80
2021/07/02 04:50:33;;;;;;;9.00;5.32;;;;;;;13.67;95.90;99123.34;5051245;28;20064;-80
2021/07/02 04:53:00;;;;;;;9.18;4.75;;;;;;;13.84;96.13;99127.41;5053496;28;20051;-81
2021/07/02 04:55:27;;;;;;;8.27;5.00;;;;;;;14.04;93.96;99145.72;5053015;28;20056;-82
2021/07/02 04:57:54;;;;;;;9.05;4.65;;;;;;;14.07;92.04;99140.66;5040515;28;20094;-80
2021/07/02 05:00:21;;;;;;;9.05;5.32;;;;;;;14.23;91.41;99146.81;5051074;28;20385;-80
2021/07/02 05:02:48;;;;;;;8.60;5.35;;;;;;;14.21;91.96;99127.88;5035421;28;20049;-81
2021/07/02 05:05:16;;;;;;;9.18;4.97;;;;;;;14.18;89.52;99135.63;5044990;28;20105;-81
2021/07/02 05:07:43;;;;;;;10.27;5.20;;;;;;;14.38;89.81;99121.97;5040745;28;20489;-81
2021/07/02 05:10:10;;;;;;;8.32;5.28;;;;;;;14.52;88.13;99151.00;5071380;28;20562;-81
2021/07/02 05:12:37;;;;;;;7.95;5.32;;;;;;;14.41;88.58;99146.19;5050394;28;20411;-81
2021/07/02 05:15:06;;;;;;;10.90;5.05;;;;;;;14.39;89.55;99130.00;5049238;28;20048;-81
2021/07/02 05:17:32;;;;;;;7.88;4.85;;;;;;;14.43;90.34;99133.13;5050909;28;20057;-81
2021/07/02 05:19:59;;;;;;;8.10;4.97;;;;;;;14.42;92.29;99128.72;5049938;28;20057;-81
2021/07/02 05:22:29;;;;;;;8.27;4.43;;;;;;;14.53;92.08;99141.75;5051167;28;20087;-81
2021/07/02 05:24:56;;;;;;;10.20;5.32;;;;;;;14.61;89.55;99154.41;5049270;28;20056;-82
2021/07/02 05:27:22;;;;;;;8.52;5.22;;;;;;;14.68;88.80;99145.13;5048075;28;20049;-82
2021/07/02 05:29:52;;;;;;;10.40;4.93;;;;;;;14.65;88.08;99144.72;5032808;28;20049;-82
2021/07/02 05:32:19;;;;;;;7.15;4.65;;;;;;;14.75;88.53;99157.97;5031557;28;20049;-81
2021/07/02 05:34:46;;;;;;;9.02;5.30;;;;;;;14.75;89.04;99127.88;5040138;28;20053;-81
2021/07/02 05:37:13;;;;;;;6.95;4.93;;;;;;;14.84;88.93;99156.69;5042926;28;20500;-81
2021/07/02 05:39:41;;;;;;;7.35;4.68;;;;;;;14.79;86.77;99161.97;5050796;28;20045;-81
2021/07/02 05:42:14;;;;;;;10.88;4.65;;;;;;;14.84;85.96;99143.88;5046483;28;20075;-81
2021/07/02 05:44:50;;;;;;;10.38;4.95;;;;;;;14.79;84.68;99162.81;5033373;28;20409;-81
2021/07/02 05:47:17;;;;;;;11.63;5.32;;;;;;;14.79;84.24;99161.97;5031477;28;20501;-81
2021/07/02 05:49:44;;;;;;;15.77;5.07;;;;;;;14.86;85.06;99169.13;5045214;28;20053;-81
2021/07/02 05:52:10;;;;;;;7.85;4.93;;;;;;;14.97;86.08;99161.31;5050922;28;20056;-81
2021/07/02 05:54:37;;;;;;;9.27;5.43;;;;;;;14.81;84.38;99157.97;5043659;28;20052;-81
2021/07/02 05:57:06;;;;;;;9.25;5.13;;;;;;;14.91;85.15;99159.44;5031337;28;20064;-81
2021/07/02 05:59:32;;;;;;;11.05;5.25;;;;;;;14.93;86.24;99160.88;5040851;28;20053;-81
2021/07/02 06:01:59;;;;;;;7.68;5.28;;;;;;;15.02;86.70;99178.78;5031161;28;20103;-81
2021/07/02 06:04:26;;;;;;;8.35;5.22;;;;;;;14.90;86.71;99155.84;5030790;28;20054;-81
2021/07/02 06:06:53;;;;;;;11.23;5.70;;;;;;;15.00;84.42;99155.41;5031361;28;20057;-81
2021/07/02 06:09:19;;;;;;;11.43;5.47;;;;;;;15.12;85.36;99167.38;5047405;28;20053;-81
2021/07/02 06:11:46;;;;;;;7.78;4.53;;;;;;;15.21;84.68;99162.50;5046835;28;20041;-81
2021/07/02 06:14:14;;;;;;;7.30;4.72;;;;;;;15.39;84.78;99170.88;5035077;28;20041;-81
2021/07/02 06:16:44;;;;;;;7.93;5.32;;;;;;;15.38;84.09;99174.66;5050060;28;20494;-81
2021/07/02 06:19:11;;;;;;;15.43;5.78;;;;;;;15.49;83.07;99183.25;5051212;28;20060;-81
2021/07/02 06:21:38;;;;;;;7.57;4.90;;;;;;;15.43;83.17;99154.88;5051178;28;20404;-81
2021/07/02 06:24:05;;;;;;;7.65;4.90;;;;;;;15.64;83.56;99180.25;5038363;28;20054;-82
2021/07/02 06:26:32;;;;;;;9.82;4.65;;;;;;;15.62;83.73;99172.25;5043776;28;20056;-82
2021/07/02 06:28:59;;;;;;;15.98;5.43;;;;;;;15.81;82.79;99180.66;5046694;28;20052;-81
2021/07/02 06:31:27;;;;;;;8.75;4.88;;;;;;;15.75;79.18;99168.63;5038288;28;20045;-81
2021/07/02 06:33:54;;;;;;;8.55;5.00;;;;;;;15.64;81.35;99183.88;5069311;28;20045;-81
2021/07/02 06:36:20;;;;;;;7.45;5.40;;;;;;;15.88;80.18;99185.03;5053597;28;20480;-81
2021/07/02 06:38:47;;;;;;;9.25;5.30;;;;;;;16.03;79.73;99183.88;5052453;28;20049;-81
2021/07/02 06:41:14;;;;;;;10.35;5.88;;;;;;;16.26;78.58;99186.06;5034613;28;20115;-81
2021/07/02 06:43:41;;;;;;;9.85;5.75;;;;;;;16.33;78.01;99177.78;5034475;28;20099;-81
2021/07/02 06:46:08;;;;;;;12.75;6.50;;;;;;;16.87;76.22;99184.53;5049578;28;20045;-81
2021/07/02 06:48:36;;;;;;;9.70;5.65;;;;;;;17.66;74.49;99195.75;5053470;28;20488;-81
2021/07/02 06:51:03;;;;;;;8.48;5.85;;;;;;;17.76;72.04;99188.84;5053938;28;20060;-82
2021/07/02 06:53:30;;;;;;;8.18;5.32;;;;;;;17.84;70.73;99175.63;5053770;28;20088;-81
2021/07/02 06:55:57;;;;;;;8.60;5.25;;;;;;;18.48;68.95;99190.81;5049521;28;20061;-81
2021/07/02 06:58:24;;;;;;;7.72;5.30;;;;;;;19.06;66.14;99195.59;5039129;28;20045;-82
2021/07/02 07:00:51;;;;;;;13.18;5.90;;;;;;;19.66;63.65;99176.19;5053548;28;20049;-82
2021/07/02 07:03:17;;;;;;;6.32;4.45;;;;;;;19.42;63.41;99182.63;5052664;28;20049;-81
2021/07/02 07:05:46;;;;;;;7.97;4.45;;;;;;;19.45;63.25;99187.63;5049197;28;20054;-82
2021/07/02 07:08:12;;;;;;;8.20;4.72;;;;;;;19.68;60.76;99193.34;5046891;28;20503;-82
2021/07/02 07:10:39;;;;;;;8.02;4.95;;;;;;;19.88;61.43;99190.19;5053585;28;20048;-82
2021/07/02 07:13:06;;;;;;;7.03;4.32;;;;;;;19.69;62.42;99171.03;5053093;28;20072;-82
2021/07/02 07:15:34;;;;;;;13.30;4.82;;;;;;;19.74;60.75;99187.69;5052547;28;20053;-82
2021/07/02 07:18:01;;;;;;;12.30;5.88;;;;;;;19.71;61.98;99174.38;5053032;28;20089;-83
2021/07/02 07:20:28;;;;;;;9.55;4.45;;;;;;;20.19;62.52;99179.72;5052904;28;20128;-83
2021/07/02 07:22:56;;;;;;;9.07;5.13;;;;;;;20.50;60.51;99172.84;5044666;28;20397;-83
2021/07/02 07:25:24;;;;;;;8.70;5.18;;;;;;;20.48;60.35;99177.78;5033583;28;20049;-83
2021/07/02 07:27:51;;;;;;;8.35;4.28;;;;;;;20.66;59.18;99179.50;5033341;28;20050;-83
2021/07/02 07:30:18;;;;;;;9.90;4.80;;;;;;;20.96;59.34;99179.16;5035500;28;20497;-83
2021/07/02 07:32:48;;;;;;;9.27;4.93;;;;;;;20.77;58.51;99192.38;5053624;28;20071;-83
2021/07/02 07:35:21;;;;;;;;;;;;;;;20.76;58.97;99203.69;5053269;28;20052;-83
2021/07/02 07:37:52;;;;;;;6.07;4.22;;;;;;;21.06;57.16;99196.97;5050681;28;20019;-82
2021/07/02 07:40:20;;;;;;;7.95;3.88;;;;;;;21.58;58.03;99187.50;5047917;28;20131;-83
2021/07/02 07:42:47;;;;;;;9.95;3.97;;;;;;;21.92;59.04;99179.91;5052638;28;20056;-83
2021/07/02 07:45:14;;;;;;;6.93;4.53;;;;;;;22.02;55.13;99182.78;5052723;28;20049;-83
2021/07/02 07:47:41;;;;;;;10.48;4.28;;;;;;;22.05;54.64;99192.50;5045002;28;20073;-81
2021/07/02 07:50:09;;;;;;;8.02;3.92;;;;;;;21.09;56.29;99199.22;5032948;28;20045;-81
2021/07/02 07:52:43;;;;;;;10.73;3.50;;;;;;;20.85;56.52;99185.59;5036765;28;20052;-80
2021/07/02 07:55:11;;;;;;;5.28;3.70;;;;;;;20.44;53.59;99185.72;5052428;28;20091;-80
2021/07/02 07:57:39;;;;;;;6.97;3.80;;;;;;;20.79;53.82;99192.97;5042770;28;20052;-80
2021/07/02 08:00:07;;;;;;;6.13;3.53;;;;;;;21.31;53.63;99180.75;5051295;28;20072;-81
2021/07/02 08:02:34;;;;;;;5.05;3.58;;;;;;;21.68;53.35;99177.41;5033684;28;20057;-82
2021/07/02 08:05:01;;;;;;;9.70;3.60;;;;;;;21.05;51.84;99179.56;5049301;28;20515;-82
2021/07/02 08:07:28;;;;;;;6.00;3.95;;;;;;;21.14;51.68;99175.28;5037581;28;20496;-82
2021/07/02 08:09:55;;;;;;;8.07;3.80;;;;;;;21.40;50.78;99194.97;5045839;28;20080;-82
2021/07/02 08:12:21;;;;;;;15.55;4.15;;;;;;;21.69;50.44;99195.69;5042159;28;20056;-82
2021/07/02 08:14:50;;;;;;;8.73;3.63;;;;;;;21.07;50.20;99185.66;5052696;28;20059;-81
2021/07/02 08:17:17;;;;;;;10.55;3.95;;;;;;;21.58;50.44;99196.63;5052247;28;20049;-79
2021/07/02 08:19:43;;;;;;;4.93;3.60;;;;;;;21.72;47.77;99202.63;5051391;28;20492;-84
2021/07/02 08:22:10;;;;;;;9.15;4.00;;;;;;;21.44;48.61;99200.81;5052298;28;20072;-81
2021/07/02 08:24:37;;;;;;;8.15;3.80;;;;;;;21.81;48.98;99194.72;5051872;28;20425;-82
2021/07/02 08:27:06;;;;;;;7.40;3.55;;;;;;;21.53;47.58;99196.59;5039399;28;20050;-82
2021/07/02 08:29:31;;;;;;;8.25;3.60;;;;;;;21.39;47.72;99185.00;5039751;28;20048;-83
2021/07/02 08:32:00;;;;;;;7.80;3.72;;;;;;;21.91;45.75;99200.38;5046594;28;20049;-82
2021/07/02 08:34:27;;;;;;;7.25;4.03;;;;;;;21.53;46.22;99202.94;5032196;28;20424;-82
2021/07/02 08:36:54;;;;;;;5.88;3.97;;;;;;;21.79;45.96;99194.13;5034343;28;20464;-82
2021/07/02 08:39:21;;;;;;;5.50;3.65;;;;;;;21.85;47.74;99205.00;5052353;28;20052;-82
2021/07/02 08:41:48;;;;;;;8.02;4.00;;;;;;;21.64;45.77;99198.38;5051940;28;20049;-83
2021/07/02 08:44:15;;;;;;;6.65;3.72;;;;;;;21.30;46.79;99204.00;5033709;28;20057;-81
2021/07/02 08:46:45;;;;;;;9.18;4.07;;;;;;;21.66;48.10;99206.41;5037446;28;20064;-81
2021/07/02 08:49:15;;;;;;;5.13;3.38;;;;;;;21.34;48.33;99216.19;5051622;28;20055;-81
2021/07/02 08:51:45;;;;;;;5.75;3.50;;;;;;;21.84;48.68;99199.72;5048457;28;20549;-81
2021/07/02 08:54:14;;;;;;;6.60;3.83;;;;;;;21.57;49.00;99208.78;5050380;28;20140;-81
2021/07/02 08:56:55;;;;;;;4.63;3.45;;;;;;;20.97;50.16;99216.75;5039161;28;20057;-80
2021/07/02 08:59:22;;;;;;;6.28;3.60;;;;;;;20.71;52.18;99225.69;5050794;28;20045;-81
2021/07/02 09:01:49;;;;;;;4.43;3.90;;;;;;;20.89;50.31;99227.38;5049092;28;20055;-79
2021/07/02 09:04:22;;;;;;;7.43;4.15;;;;;;;21.21;49.89;99222.94;5037208;28;20432;-83
2021/07/02 09:07:03;;;;;;;6.13;3.55;;;;;;;21.03;49.88;99220.41;5051325;28;20048;-83
2021/07/02 09:09:51;;;;;;;9.50;3.92;;;;;;;21.25;52.35;99216.88;5051431;28;20111;-82
2021/07/02 09:12:20;;;;;;;14.38;4.57;;;;;;;21.60;49.84;99226.81;5042174;28;20056;-82
2021/07/02 09:15:06;;;;;;;5.80;4.30;;;;;;;21.56;48.93;99220.97;5031249;28;20087;-81
2021/07/02 09:17:34;;;;;;;4.72;3.47;;;;;;;22.17;47.15;99237.47;5045069;28;20499;-82
2021/07/02 09:20:18;;;;;;;7.13;4.00;;;;;;;22.31;45.70;99221.34;5035176;28;20053;-81
2021/07/02 09:22:48;;;;;;;8.10;4.10;;;;;;;22.31;48.06;99220.44;5050985;28;20045;-82
2021/07/02 09:25:24;;;;;;;7.23;4.13;;;;;;;22.54;47.14;99211.03;5051785;28;20067;-82
2021/07/02 09:27:52;;;;;;;5.30;3.75;;;;;;;22.53;44.70;99212.94;5051058;28;20049;-82
2021/07/02 09:30:21;;;;;;;10.48;4.18;;;;;;;21.64;47.14;99216.91;5050547;28;20049;-83
2021/07/02 09:32:49;;;;;;;7.45;4.28;;;;;;;21.08;50.18;99223.28;5051743;28;20062;-82
2021/07/02 09:35:19;;;;;;;5.88;3.90;;;;;;;21.51;48.23;99238.31;5039792;28;20057;-83
2021/07/02 09:37:48;;;;;;;6.63;3.80;;;;;;;22.06;45.04;99221.84;5038342;28;20045;-83
2021/07/02 09:40:19;;;;;;;5.72;3.63;;;;;;;22.48;43.46;99217.59;5063216;28;20069;-83
2021/07/02 09:42:47;;;;;;;7.05;4.25;;;;;;;22.22;44.48;99211.78;5031767;28;20152;-83
2021/07/02 09:45:16;;;;;;;8.07;4.20;;;;;;;22.73;46.58;99219.78;5041340;28;20102;-83
2021/07/02 09:47:44;;;;;;;6.13;4.10;;;;;;;23.27;44.64;99232.69;5031489;28;20061;-83
2021/07/02 09:50:27;;;;;;;5.85;4.80;;;;;;;23.21;44.61;99222.69;5032750;28;20056;-82
2021/07/02 09:52:56;;;;;;;6.22;3.95;;;;;;;22.13;45.27;99227.19;5045190;28;20068;-84
2021/07/02 09:55:25;;;;;;;4.60;3.70;;;;;;;21.48;46.92;99237.94;5044743;28;20129;-82
2021/07/02 09:58:03;;;;;;;6.95;3.70;;;;;;;20.83;46.36;99229.22;5049194;28;20095;-83
2021/07/02 10:00:31;;;;;;;4.57;3.92;;;;;;;20.75;46.42;99227.72;5038119;28;20056;-83
2021/07/02 10:03:00;;;;;;;5.55;4.00;;;;;;;20.89;47.26;99228.22;5040281;28;20196;-83
2021/07/02 10:05:28;;;;;;;7.05;3.85;;;;;;;21.78;46.76;99248.63;5034847;28;20049;-83
2021/07/02 10:08:01;;;;;;;8.65;3.80;;;;;;;21.38;43.23;99233.13;5047326;28;20053;-81
2021/07/02 10:10:29;;;;;;;8.98;3.67;;;;;;;21.17;44.22;99231.97;5054882;28;20459;-83
2021/07/02 10:12:57;;;;;;;7.53;3.90;;;;;;;21.16;44.76;99225.59;5056321;28;20298;-81
2021/07/02 10:15:25;;;;;;;5.22;3.92;;;;;;;21.52;44.87;99242.75;5073984;28;20059;-82
2021/07/02 10:17:53;;;;;;;7.50;4.78;;;;;;;20.88;46.13;99240.38;5062114;28;20103;-82
2021/07/02 10:20:21;;;;;;;8.85;4.32;;;;;;;20.71;46.58;99232.06;5034744;28;20053;-82
2021/07/02 10:22:51;;;;;;;6.30;4.03;;;;;;;21.67;43.66;99238.53;5034896;28;20115;-83
2021/07/02 10:25:20;;;;;;;6.10;3.42;;;;;;;21.90;41.65;99220.81;5054275;28;20514;-84
2021/07/02 10:27:47;;;;;;;9.63;4.07;;;;;;;21.99;39.59;99226.75;5054704;28;20055;-83
2021/07/02 10:30:15;;;;;;;4.53;3.50;;;;;;;22.32;39.02;99223.00;5045082;28;20603;-83
2021/07/02 10:32:43;;;;;;;8.32;3.85;;;;;;;22.48;40.62;99224.00;5054532;28;20496;-83
2021/07/02 10:35:15;;;;;;;4.38;3.20;;;;;;;22.59;41.82;99217.44;5036743;28;20496;-84
2021/07/02 10:37:44;;;;;;;5.90;3.65;;;;;;;22.73;40.16;99228.94;5044782;28;20217;-83
2021/07/02 10:40:32;;;;;;;4.78;3.58;;;;;;;22.85;41.21;99237.06;5040272;28;20096;-83
2021/07/02 10:43:19;;;;;;;5.30;3.95;;;;;;;22.18;44.07;99233.63;5034275;28;20107;-83
2021/07/02 10:46:16;;;;;;;7.07;4.65;;;;;;;21.78;45.40;99243.09;5047401;28;20049;-82
2021/07/02 10:49:06;;;;;;;7.07;3.92;;;;;;;21.69;45.70;99231.66;5054003;28;20045;-82
2021/07/02 10:51:54;;;;;;;9.25;4.03;;;;;;;22.02;43.22;99232.59;5053951;28;20076;-82
2021/07/02 10:54:42;;;;;;;6.28;3.80;;;;;;;22.27;42.88;99245.91;5054104;28;20457;-83
2021/07/02 10:57:13;;;;;;;4.55;3.35;;;;;;;22.42;42.37;99233.34;5033463;28;20053;-82
2021/07/02 11:00:04;;;;;;;5.25;3.70;;;;;;;21.78;43.25;99242.25;5053340;28;20072;-84
2021/07/02 11:02:31;;;;;;;7.25;4.10;;;;;;;21.23;44.78;99250.31;5053514;28;20056;-82
2021/07/02 11:04:59;;;;;;;5.07;3.55;;;;;;;21.87;44.91;99247.06;5053564;28;20053;-85
2021/07/02 11:07:45;;;;;;;6.50;3.72;;;;;;;22.58;41.94;99253.72;5043241;28;20054;-81
2021/07/02 11:10:12;;;;;;;5.22;3.65;;;;;;;22.98;40.18;99231.06;5032967;28;20049;-82
2021/07/02 11:13:02;;;;;;;8.75;3.53;;;;;;;23.44;38.58;99250.03;5037291;28;20056;-79
2021/07/02 11:15:30;;;;;;;5.53;3.60;;;;;;;22.87;38.24;99242.34;5052993;28;20514;-81
2021/07/02 11:18:16;;;;;;;5.15;3.55;;;;;;;23.10;38.08;99236.47;5063550;28;20399;-82
2021/07/02 11:20:44;;;;;;;8.57;3.30;;;;;;;23.04;38.91;99240.28;5033881;28;20045;-81
2021/07/02 11:23:28;;;;;;;4.53;3.50;;;;;;;22.68;40.45;99239.13;5033606;28;20103;-83
2021/07/02 11:26:01;;;;;;;5.72;3.75;;;;;;;22.34;40.58;99231.03;5042683;28;20052;-82
2021/07/02 11:28:39;;;;;;;4.55;3.22;;;;;;;22.90;40.69;99239.91;5053466;28;20087;-84
2021/07/02 11:31:09;;;;;;;9.88;3.50;;;;;;;23.22;40.83;99243.78;5040672;28;20099;-83
2021/07/02 11:33:37;;;;;;;12.10;4.50;;;;;;;23.36;38.97;99241.38;5052236;28;20433;-82
2021/07/02 11:36:12;;;;;;;3.92;3.30;;;;;;;22.54;39.08;99227.66;5047844;28;20049;-82
2021/07/02 11:38:50;;;;;;;7.82;3.47;;;;;;;22.53;39.48;99245.38;5052855;28;20080;-82